地図

経路データ

SID SEASON NUMBER BASIN SUBBASIN NAME ISO_TIME NATURE LAT LON WMO_WIND WMO_PRES WMO_AGENCY TRACK_TYPE DIST2LAND LANDFALL IFLAG USA_AGENCY USA_ATCF_ID USA_LAT USA_LON USA_RECORD USA_STATUS USA_WIND USA_PRES USA_SSHS USA_R34_NE USA_R34_SE USA_R34_SW USA_R34_NW USA_R50_NE USA_R50_SE USA_R50_SW USA_R50_NW USA_R64_NE USA_R64_SE USA_R64_SW USA_R64_NW USA_POCI USA_ROCI USA_RMW USA_EYE TOKYO_LAT TOKYO_LON TOKYO_GRADE TOKYO_WIND TOKYO_PRES TOKYO_R50_DIR TOKYO_R50_LONG TOKYO_R50_SHORT TOKYO_R30_DIR TOKYO_R30_LONG TOKYO_R30_SHORT TOKYO_LAND CMA_LAT CMA_LON CMA_CAT CMA_WIND CMA_PRES HKO_LAT HKO_LON HKO_CAT HKO_WIND HKO_PRES NEWDELHI_LAT NEWDELHI_LON NEWDELHI_GRADE NEWDELHI_WIND NEWDELHI_PRES NEWDELHI_CI NEWDELHI_DP NEWDELHI_POCI REUNION_LAT REUNION_LON REUNION_TYPE REUNION_WIND REUNION_PRES REUNION_TNUM REUNION_CI REUNION_RMW REUNION_R34_NE REUNION_R34_SE REUNION_R34_SW REUNION_R34_NW REUNION_R50_NE REUNION_R50_SE REUNION_R50_SW REUNION_R50_NW REUNION_R64_NE REUNION_R64_SE REUNION_R64_SW REUNION_R64_NW BOM_LAT BOM_LON BOM_TYPE BOM_WIND BOM_PRES BOM_TNUM BOM_CI BOM_RMW BOM_R34_NE BOM_R34_SE BOM_R34_SW BOM_R34_NW BOM_R50_NE BOM_R50_SE BOM_R50_SW BOM_R50_NW BOM_R64_NE BOM_R64_SE BOM_R64_SW BOM_R64_NW BOM_ROCI BOM_POCI BOM_EYE BOM_POS_METHOD BOM_PRES_METHOD NADI_LAT NADI_LON NADI_CAT NADI_WIND NADI_PRES WELLINGTON_LAT WELLINGTON_LON WELLINGTON_WIND WELLINGTON_PRES DS824_LAT DS824_LON DS824_STAGE DS824_WIND DS824_PRES TD9636_LAT TD9636_LON TD9636_STAGE TD9636_WIND TD9636_PRES TD9635_LAT TD9635_LON TD9635_WIND TD9635_PRES TD9635_ROCI NEUMANN_LAT NEUMANN_LON NEUMANN_CLASS NEUMANN_WIND NEUMANN_PRES MLC_LAT MLC_LON MLC_CLASS MLC_WIND MLC_PRES USA_GUST BOM_GUST BOM_GUST_PER REUNION_GUST REUNION_GUST_PER USA_SEAHGT USA_SEARAD_NE USA_SEARAD_SE USA_SEARAD_SW USA_SEARAD_NW STORM_SPEED STORM_DIR
1969257N11314 1969 78 NA NA HOLLY 1969-09-13 18:00:00 TS 11.2000 -46.5000 30 hurdat_atl main 936 930 O_____________ hurdat_atl AL171969 11.2000 -46.5000 TD 30 -1 6 292
1969257N11314 1969 78 NA NA HOLLY 1969-09-13 21:00:00 TS 11.3026 -46.7599 main 927 922 P_____________ AL171969 11.3026 -46.7599 TD 30 -1 5 292
1969257N11314 1969 78 NA NA HOLLY 1969-09-14 00:00:00 TS 11.4000 -47.0000 30 hurdat_atl main 925 920 O_____________ hurdat_atl AL171969 11.4000 -47.0000 TD 30 -1 5 293
1969257N11314 1969 78 NA NA HOLLY 1969-09-14 03:00:00 TS 11.4925 -47.2075 main 922 915 P_____________ AL171969 11.4925 -47.2075 TD 32 -1 4 297
1969257N11314 1969 78 NA NA HOLLY 1969-09-14 06:00:00 TS 11.6000 -47.4000 35 hurdat_atl main 917 910 O_____________ hurdat_atl AL171969 11.6000 -47.4000 TS 35 0 5 303
1969257N11314 1969 78 NA NA HOLLY 1969-09-14 09:00:00 TS 11.7425 -47.6000 main 912 912 P_____________ AL171969 11.7425 -47.6000 TS 37 0 5 308
1969257N11314 1969 78 NA NA HOLLY 1969-09-14 12:00:00 TS 11.9000 -47.8000 40 hurdat_atl main 917 911 O_____________ hurdat_atl AL171969 11.9000 -47.8000 TS 40 0 5 307
1969257N11314 1969 78 NA NA HOLLY 1969-09-14 15:00:00 TS 12.0425 -48.0075 main 914 914 P_____________ AL171969 12.0425 -48.0075 TS 40 0 5 308
1969257N11314 1969 78 NA NA HOLLY 1969-09-14 18:00:00 TS 12.2000 -48.2000 40 1000 hurdat_atl main 921 921 O_____________ hurdat_atl AL171969 12.2000 -48.2000 TS 40 1000 0 5 314
1969257N11314 1969 78 NA NA HOLLY 1969-09-14 21:00:00 TS 12.3775 -48.3576 main 929 929 P_____________ AL171969 12.3775 -48.3576 TS 42 0 5 324
1969257N11314 1969 78 NA NA HOLLY 1969-09-15 00:00:00 TS 12.6000 -48.5000 45 hurdat_atl main 943 943 O_____________ hurdat_atl AL171969 12.6000 -48.5000 TS 45 0 6 330
1969257N11314 1969 78 NA NA HOLLY 1969-09-15 03:00:00 TS 12.8775 -48.6500 main 963 963 P_____________ AL171969 12.8775 -48.6500 TS 47 0 7 334
1969257N11314 1969 78 NA NA HOLLY 1969-09-15 06:00:00 TS 13.2000 -48.8000 50 hurdat_atl main 987 987 O_____________ hurdat_atl AL171969 13.2000 -48.8000 TS 50 0 7 337
1969257N11314 1969 78 NA NA HOLLY 1969-09-15 09:00:00 TS 13.5500 -48.9425 main 1013 1013 P_____________ AL171969 13.5500 -48.9425 TS 52 0 8 337
1969257N11314 1969 78 NA NA HOLLY 1969-09-15 12:00:00 TS 13.9000 -49.1000 55 994 hurdat_atl main 1045 1045 O_____________ hurdat_atl AL171969 13.9000 -49.1000 TS 55 994 0 8 333
1969257N11314 1969 78 NA NA HOLLY 1969-09-15 15:00:00 TS 14.2150 -49.2925 main 1068 1068 P_____________ AL171969 14.2150 -49.2925 TS 57 993 0 7 327
1969257N11314 1969 78 NA NA HOLLY 1969-09-15 18:00:00 TS 14.5000 -49.5000 60 992 hurdat_atl main 1091 1091 O_____________ hurdat_atl AL171969 14.5000 -49.5000 TS 60 992 0 7 324
1969257N11314 1969 78 NA NA HOLLY 1969-09-15 21:00:00 TS 14.7650 -49.7075 main 1111 1106 P_____________ AL171969 14.7650 -49.7075 TS 60 992 0 6 322
1969257N11314 1969 78 NA NA HOLLY 1969-09-16 00:00:00 TS 15.0000 -49.9000 60 hurdat_atl main 1122 1122 I_____________ hurdat_atl AL171969 15.0000 -49.9000 TS 60 992 0 6 323
1969257N11314 1969 78 NA NA HOLLY 1969-09-16 03:00:00 TS 15.2150 -50.0650 main 1133 1133 P_____________ AL171969 15.2150 -50.0650 TS 60 992 0 5 324
1969257N11314 1969 78 NA NA HOLLY 1969-09-16 06:00:00 TS 15.4000 -50.2000 60 992 hurdat_atl main 1150 1150 O_____________ hurdat_atl AL171969 15.4000 -50.2000 TS 60 992 0 4 327
1969257N11314 1969 78 NA NA HOLLY 1969-09-16 09:00:00 TS 15.5575 -50.2926 main 1166 1162 P_____________ AL171969 15.5575 -50.2926 TS 60 993 0 4 327
1969257N11314 1969 78 NA NA HOLLY 1969-09-16 12:00:00 TS 15.7000 -50.4000 60 994 hurdat_atl main 1173 1169 O_____________ hurdat_atl AL171969 15.7000 -50.4000 TS 60 994 0 4 317
1969257N11314 1969 78 NA NA HOLLY 1969-09-16 15:00:00 TS 15.8500 -50.5775 main 1176 1176 P_____________ AL171969 15.8500 -50.5775 TS 65 989 1 5 308
1969257N11314 1969 78 NA NA HOLLY 1969-09-16 18:00:00 TS 16.0000 -50.8000 70 984 hurdat_atl main 1190 1187 O_____________ hurdat_atl AL171969 16.0000 -50.8000 HU 70 984 1 5 304
1969257N11314 1969 78 NA NA HOLLY 1969-09-16 21:00:00 TS 16.1500 -51.0425 main 1205 1194 P_____________ AL171969 16.1500 -51.0425 HU 62 991 0 6 302
1969257N11314 1969 78 NA NA HOLLY 1969-09-17 00:00:00 TS 16.3000 -51.3000 55 999 hurdat_atl main 1206 1204 O_____________ hurdat_atl AL171969 16.3000 -51.3000 TS 55 999 0 6 302
1969257N11314 1969 78 NA NA HOLLY 1969-09-17 03:00:00 TS 16.4575 -51.5500 main 1205 1193 P_____________ AL171969 16.4575 -51.5500 TS 55 998 0 6 302
1969257N11314 1969 78 NA NA HOLLY 1969-09-17 06:00:00 TS 16.6000 -51.8000 55 997 hurdat_atl main 1193 1181 O_____________ hurdat_atl AL171969 16.6000 -51.8000 TS 55 997 0 5 298
1969257N11314 1969 78 NA NA HOLLY 1969-09-17 09:00:00 TS 16.7074 -52.0426 main 1181 1161 P_____________ AL171969 16.7074 -52.0426 TS 52 998 0 5 293
1969257N11314 1969 78 NA NA HOLLY 1969-09-17 12:00:00 TS 16.8000 -52.3000 50 1000 hurdat_atl main 1161 1142 O_____________ hurdat_atl AL171969 16.8000 -52.3000 TS 50 1000 0 6 292
1969257N11314 1969 78 NA NA HOLLY 1969-09-17 15:00:00 TS 16.9150 -52.5850 main 1142 1123 P_____________ AL171969 16.9150 -52.5850 TS 47 1001 0 6 289
1969257N11314 1969 78 NA NA HOLLY 1969-09-17 18:00:00 TS 17.0000 -52.9000 45 1002 hurdat_atl main 1123 1098 O_____________ hurdat_atl AL171969 17.0000 -52.9000 TS 45 1002 0 6 280
1969257N11314 1969 78 NA NA HOLLY 1969-09-17 21:00:00 TS 17.0300 -53.2425 main 1098 1065 P_____________ AL171969 17.0300 -53.2425 TS 42 1003 0 7 270
1969257N11314 1969 78 NA NA HOLLY 1969-09-18 00:00:00 TS 17.0000 -53.6000 40 1004 hurdat_atl main 1065 1034 O_____________ hurdat_atl AL171969 17.0000 -53.6000 TS 40 1004 0 7 260
1969257N11314 1969 78 NA NA HOLLY 1969-09-18 03:00:00 TS 16.9149 -53.9350 main 1034 995 P_____________ AL171969 16.9149 -53.9350 TS 40 1004 0 7 253
1969257N11314 1969 78 NA NA HOLLY 1969-09-18 06:00:00 TS 16.8000 -54.3000 40 1004 hurdat_atl main 995 956 O_____________ hurdat_atl AL171969 16.8000 -54.3000 TS 40 1004 0 8 254
1969257N11314 1969 78 NA NA HOLLY 1969-09-18 09:00:00 TS 16.6999 -54.7275 main 956 910 P_____________ AL171969 16.6999 -54.7275 TS 37 0 9 257
1969257N11314 1969 78 NA NA HOLLY 1969-09-18 12:00:00 TS 16.6000 -55.2000 35 hurdat_atl main 910 865 O_____________ hurdat_atl AL171969 16.6000 -55.2000 TS 35 0 9 258
1969257N11314 1969 78 NA NA HOLLY 1969-09-18 15:00:00 TS 16.5002 -55.6951 main 865 822 P_____________ AL171969 16.5002 -55.6951 TS 32 -1 10 258
1969257N11314 1969 78 NA NA HOLLY 1969-09-18 18:00:00 TS 16.4000 -56.2000 30 hurdat_atl main 822 O_____________ hurdat_atl AL171969 16.4000 -56.2000 TD 30 -1 10 258

IBTrACS Databaseについて

本データベースは、米国NOAAが公開する1842年以降の世界の熱帯低気圧のベストトラックデータアーカイブInternational Best Track Archive for Climate Stewardship (IBTrACS)を、ウェブで閲覧しやすい形式に変換したものです。

最終更新日:2022-05-26